createdAt,value
2022-12-19T00:01:40.929Z,72.10
2022-12-19T00:04:45.647Z,71.70
2022-12-19T00:07:49.871Z,71.70
2022-12-19T00:10:57.336Z,71.40
2022-12-19T00:14:01.145Z,71.30
2022-12-19T00:17:04.158Z,71.60
2022-12-19T00:20:10.327Z,70.90
2022-12-19T00:23:14.768Z,70.70
2022-12-19T00:26:19.880Z,70.90
2022-12-19T00:29:22.852Z,70.80
2022-12-19T00:32:26.365Z,70.20
2022-12-19T00:35:30.682Z,69.90
2022-12-19T00:38:33.907Z,69.70
2022-12-19T00:41:41.637Z,69.60
2022-12-19T00:44:45.401Z,70.20
2022-12-19T00:47:48.503Z,69.40
2022-12-19T00:51:01.053Z,69.40
2022-12-19T00:54:07.276Z,69.20
2022-12-19T00:57:10.860Z,69.00
2022-12-19T01:00:16.704Z,68.90
2022-12-19T01:03:19.904Z,68.40
2022-12-19T01:06:24.276Z,68.40
2022-12-19T01:09:27.764Z,67.60
2022-12-19T01:12:49.112Z,67.40
2022-12-19T01:15:52.252Z,67.70
2022-12-19T01:18:55.248Z,67.70
2022-12-19T01:21:59.585Z,67.30
2022-12-19T01:25:03.213Z,66.60
2022-12-19T01:28:08.562Z,66.20
2022-12-19T01:31:14.165Z,67.40
2022-12-19T01:34:18.683Z,66.70
2022-12-19T01:37:23.374Z,67.10
2022-12-19T01:40:26.535Z,67.50
2022-12-19T01:43:34.388Z,67.50
2022-12-19T01:46:42.009Z,66.50
2022-12-19T01:49:45.198Z,66.80
2022-12-19T01:52:49.779Z,67.50
2022-12-19T01:55:53.708Z,66.70
2022-12-19T01:59:05.844Z,66.60
2022-12-19T02:02:15.860Z,66.60
2022-12-19T02:05:19.286Z,66.10
2022-12-19T02:08:27.104Z,66.00
2022-12-19T02:11:30.146Z,65.70
2022-12-19T02:14:33.676Z,66.10
2022-12-19T02:17:52.730Z,66.80
2022-12-19T02:21:21.885Z,66.50
2022-12-19T02:25:02.707Z,66.90
2022-12-19T02:28:47.551Z,66.30
2022-12-19T02:31:58.465Z,66.70
2022-12-19T02:35:12.410Z,66.40
2022-12-19T02:38:25.601Z,67.10
2022-12-19T02:41:43.301Z,67.10
2022-12-19T02:44:52.364Z,67.40
2022-12-19T02:48:02.325Z,67.40
2022-12-19T02:51:07.669Z,67.70
2022-12-19T02:54:11.824Z,67.70
2022-12-19T02:57:24.936Z,68.00
2022-12-19T03:00:33.280Z,68.00
2022-12-19T03:03:48.789Z,67.70
2022-12-19T03:07:02.052Z,66.50
2022-12-19T03:10:19.493Z,66.70
2022-12-19T03:13:29.703Z,66.10
2022-12-19T03:16:36.474Z,66.70
2022-12-19T03:19:42.690Z,65.80
2022-12-19T03:22:46.160Z,65.30
2022-12-19T03:25:57.027Z,65.10
2022-12-19T03:29:15.825Z,65.00
2022-12-19T03:32:21.350Z,65.00
2022-12-19T03:35:30.569Z,64.60
2022-12-19T03:38:36.802Z,64.10
2022-12-19T03:42:09.394Z,63.50
2022-12-19T03:45:16.674Z,63.80
2022-12-19T03:48:28.636Z,63.80
2022-12-19T03:51:43.788Z,62.70
2022-12-19T03:54:56.887Z,62.70
2022-12-19T03:58:08.192Z,62.60
2022-12-19T04:01:12.107Z,62.80
2022-12-19T04:04:16.538Z,62.60
2022-12-19T04:07:22.420Z,63.30
2022-12-19T04:10:28.853Z,63.10
2022-12-19T04:13:42.558Z,62.50
2022-12-19T04:16:52.783Z,62.70
2022-12-19T04:20:03.114Z,62.90
2022-12-19T04:23:15.997Z,63.00
2022-12-19T04:26:22.102Z,63.10
2022-12-19T04:29:27.634Z,63.70
2022-12-19T04:32:35.196Z,63.30
2022-12-19T04:35:39.016Z,63.10
2022-12-19T04:38:43.441Z,63.50
2022-12-19T04:41:46.546Z,63.50
2022-12-19T04:44:49.503Z,63.50
2022-12-19T04:47:52.450Z,63.50
2022-12-19T04:50:56.351Z,63.50
2022-12-19T04:54:00.646Z,63.50
2022-12-19T04:57:03.767Z,63.40
2022-12-19T05:00:08.618Z,63.40
2022-12-19T05:03:11.852Z,63.20
2022-12-19T05:06:17.053Z,63.10
2022-12-19T05:09:21.644Z,63.10
2022-12-19T05:12:24.832Z,63.00
2022-12-19T05:15:27.800Z,62.90
2022-12-19T05:18:32.527Z,62.90
2022-12-19T05:21:35.562Z,63.20
2022-12-19T05:24:40.049Z,63.20
2022-12-19T05:27:42.949Z,63.20
2022-12-19T05:30:52.083Z,63.40
2022-12-19T05:33:55.589Z,63.40
2022-12-19T05:36:58.930Z,63.60
2022-12-19T05:40:05.257Z,63.90
2022-12-19T05:43:08.242Z,64.10
2022-12-19T05:46:11.360Z,64.40
2022-12-19T05:49:18.308Z,63.70
2022-12-19T05:52:21.818Z,64.50
2022-12-19T05:55:26.183Z,64.80
2022-12-19T05:58:29.223Z,64.50
2022-12-19T06:01:32.348Z,64.50
2022-12-19T06:04:39.031Z,64.40
2022-12-19T06:07:42.074Z,64.70
2022-12-19T06:10:46.431Z,64.90
2022-12-19T06:13:49.877Z,65.30
2022-12-19T06:16:52.901Z,65.20
2022-12-19T06:19:56.042Z,65.30
2022-12-19T06:23:00.277Z,65.50
2022-12-19T06:26:07.437Z,65.10
2022-12-19T06:29:10.525Z,65.70
2022-12-19T06:32:13.698Z,65.60
2022-12-19T06:35:16.955Z,65.70
2022-12-19T06:38:21.099Z,65.80
2022-12-19T06:41:43.673Z,66.00
2022-12-19T06:44:46.720Z,66.40
2022-12-19T06:47:51.012Z,66.40
2022-12-19T06:50:54.429Z,66.40
2022-12-19T06:53:58.705Z,66.40
2022-12-19T06:57:03.498Z,66.40
2022-12-19T07:00:07.975Z,66.40
2022-12-19T07:03:16.844Z,66.40
2022-12-19T07:06:19.912Z,66.50
2022-12-19T07:09:23.135Z,66.40
2022-12-19T07:12:27.737Z,66.40
2022-12-19T07:15:34.134Z,66.40
2022-12-19T07:18:40.581Z,66.50
2022-12-19T07:21:43.691Z,67.30
2022-12-19T07:24:47.031Z,66.30
2022-12-19T07:27:52.751Z,66.10
2022-12-19T07:30:55.674Z,66.40
2022-12-19T07:33:58.905Z,66.60
2022-12-19T07:37:02.601Z,66.70
2022-12-19T07:40:07.244Z,66.70
2022-12-19T07:43:12.152Z,66.80
2022-12-19T07:46:15.483Z,66.50
2022-12-19T07:49:22.661Z,66.50
2022-12-19T07:52:26.437Z,66.70
2022-12-19T07:55:29.880Z,66.70
2022-12-19T07:58:34.306Z,66.70
2022-12-19T08:01:37.417Z,67.30
2022-12-19T08:04:40.589Z,67.00
2022-12-19T08:07:43.710Z,66.60
2022-12-19T08:10:47.076Z,67.00
2022-12-19T08:13:51.699Z,66.40
2022-12-19T08:20:18.156Z,67.40
2022-12-19T08:23:21.393Z,66.60
2022-12-19T08:26:25.881Z,66.70
2022-12-19T08:29:30.703Z,66.50
2022-12-19T08:32:33.743Z,66.80
2022-12-19T08:35:37.674Z,66.90
2022-12-19T08:38:41.407Z,66.80
2022-12-19T08:41:44.664Z,67.00
2022-12-19T08:44:49.057Z,67.00
2022-12-19T08:47:52.196Z,66.90
2022-12-19T08:50:58.140Z,66.90
2022-12-19T08:54:01.231Z,66.90
2022-12-19T08:57:05.322Z,66.80
2022-12-19T09:00:12.247Z,66.80
2022-12-19T09:03:16.250Z,67.00
2022-12-19T09:06:21.831Z,67.00
2022-12-19T09:09:24.855Z,67.10
2022-12-19T09:12:27.851Z,66.60
2022-12-19T09:15:32.387Z,67.60
2022-12-19T09:18:36.116Z,67.80
2022-12-19T09:21:39.104Z,67.20
2022-12-19T09:24:42.030Z,66.70
2022-12-19T09:28:25.120Z,67.80
2022-12-19T09:31:14.873Z,67.10
2022-12-19T09:34:18.007Z,67.10
2022-12-19T09:37:25.431Z,67.00
2022-12-19T09:40:34.772Z,67.60
2022-12-19T09:43:59.455Z,67.30
2022-12-19T09:47:15.171Z,67.00
2022-12-19T09:50:33.284Z,67.10
2022-12-19T09:53:54.729Z,67.80
2022-12-19T09:57:05.081Z,67.50
2022-12-19T10:00:13.624Z,67.60
2022-12-19T10:03:26.941Z,67.60
2022-12-19T10:07:08.807Z,67.70
2022-12-19T10:12:33.436Z,67.70
2022-12-19T10:13:32.679Z,67.70
2022-12-19T10:17:08.948Z,68.10
2022-12-19T10:20:24.020Z,67.80
2022-12-19T10:24:00.491Z,68.30
2022-12-19T10:27:16.935Z,68.50
2022-12-19T10:30:23.476Z,68.40
2022-12-19T10:33:36.272Z,68.70
2022-12-19T10:37:19.001Z,68.90
2022-12-19T10:40:27.524Z,69.30
2022-12-19T10:43:46.067Z,69.60
2022-12-19T10:46:51.004Z,69.90
2022-12-19T10:49:54.009Z,70.10
2022-12-19T10:53:11.082Z,70.20
2022-12-19T10:56:23.593Z,70.70
2022-12-19T10:59:28.459Z,71.00
2022-12-19T11:02:42.171Z,71.90
2022-12-19T11:05:57.628Z,71.10
2022-12-19T11:09:20.705Z,71.20
2022-12-19T11:16:39.840Z,72.10
2022-12-19T11:22:15.082Z,71.50
2022-12-19T11:29:27.629Z,71.70
2022-12-19T11:29:38.399Z,72.40
2022-12-19T11:30:46.434Z,71.90
2022-12-19T11:33:47.330Z,72.10
2022-12-19T11:37:00.680Z,72.10
2022-12-19T11:40:11.620Z,72.30
2022-12-19T11:46:57.902Z,72.30
2022-12-19T11:50:12.276Z,72.40
2022-12-19T11:53:24.544Z,72.40
2022-12-19T11:56:28.402Z,72.50
2022-12-19T11:59:37.718Z,72.10
2022-12-19T12:03:21.079Z,72.70
2022-12-19T12:06:33.094Z,73.00
2022-12-19T12:14:09.581Z,72.60
2022-12-19T12:24:42.544Z,72.70
2022-12-19T12:31:05.046Z,72.70
2022-12-19T12:31:08.553Z,72.70
2022-12-19T12:31:26.379Z,72.70
2022-12-19T12:31:58.100Z,72.80
2022-12-19T12:35:36.474Z,73.00
2022-12-19T12:39:15.993Z,73.70
2022-12-19T12:42:44.540Z,73.80
2022-12-19T12:45:47.614Z,73.30
2022-12-19T12:49:01.327Z,74.10
2022-12-19T12:52:09.042Z,73.70
2022-12-19T12:55:25.025Z,73.50
2022-12-19T12:59:05.000Z,73.90
2022-12-19T13:02:19.444Z,74.10
2022-12-19T13:05:40.573Z,73.80
2022-12-19T13:08:49.391Z,74.30
2022-12-19T13:12:20.908Z,73.80
2022-12-19T13:15:38.962Z,73.70
2022-12-19T13:18:42.083Z,74.00
2022-12-19T13:22:23.365Z,73.80
2022-12-19T13:25:52.747Z,74.20
2022-12-19T13:28:55.763Z,74.30
2022-12-19T13:32:17.377Z,73.80
2022-12-19T13:39:08.300Z,74.20
2022-12-19T13:39:57.478Z,74.30
2022-12-19T13:42:45.099Z,73.90
2022-12-19T13:45:55.864Z,74.00
2022-12-19T13:49:05.021Z,74.10
2022-12-19T13:52:12.939Z,74.10
2022-12-19T13:55:18.344Z,74.10
2022-12-19T13:58:28.902Z,74.30
2022-12-19T14:01:38.188Z,74.30
2022-12-19T14:04:42.285Z,74.20
2022-12-19T14:07:47.309Z,74.30
2022-12-19T14:11:39.874Z,75.30
2022-12-19T14:14:38.199Z,74.40
2022-12-19T14:17:41.743Z,74.50
2022-12-19T14:22:02.139Z,74.40
2022-12-19T14:24:15.033Z,74.50
2022-12-19T14:28:26.254Z,74.70
2022-12-19T14:31:00.840Z,74.60
2022-12-19T14:34:35.494Z,75.00
2022-12-19T14:38:44.929Z,74.60
2022-12-19T14:41:09.236Z,74.90
2022-12-19T14:52:08.593Z,74.70
2022-12-19T14:54:08.510Z,74.70
2022-12-19T14:54:14.804Z,74.80
2022-12-19T14:58:54.892Z,74.90
2022-12-19T15:01:36.821Z,74.90
2022-12-19T15:04:50.766Z,75.10
2022-12-19T15:08:00.869Z,75.00
2022-12-19T15:11:37.298Z,75.00
2022-12-19T15:14:59.085Z,75.10
2022-12-19T15:18:19.287Z,75.30
2022-12-19T15:21:22.524Z,75.30
2022-12-19T15:24:25.546Z,75.30
2022-12-19T15:27:28.577Z,75.40
2022-12-19T15:30:36.790Z,75.30
2022-12-19T15:34:06.714Z,75.40
2022-12-19T15:37:04.292Z,75.50
2022-12-19T15:40:14.146Z,75.40
2022-12-19T15:44:01.422Z,75.50
2022-12-19T15:46:48.644Z,75.50
2022-12-19T15:49:53.739Z,75.40
2022-12-19T15:53:00.365Z,75.40
2022-12-19T15:56:03.847Z,75.50
2022-12-19T15:59:18.727Z,75.50
2022-12-19T16:02:27.910Z,75.60
2022-12-19T16:05:41.856Z,75.70
2022-12-19T16:08:45.250Z,75.60
2022-12-19T16:11:49.697Z,75.50
2022-12-19T16:14:58.489Z,75.60
2022-12-19T16:18:04.149Z,75.70
2022-12-19T16:21:17.036Z,75.60
2022-12-19T16:24:21.152Z,75.70
2022-12-19T16:27:25.845Z,75.60
2022-12-19T16:30:32.559Z,76.80
2022-12-19T16:33:35.675Z,75.60
2022-12-19T16:36:40.027Z,75.60
2022-12-19T16:39:44.827Z,76.50
2022-12-19T16:42:49.803Z,75.40
2022-12-19T16:45:58.131Z,75.80
2022-12-19T16:49:07.282Z,75.90
2022-12-19T16:52:12.248Z,76.00
2022-12-19T16:55:16.174Z,76.10
2022-12-19T16:58:23.182Z,76.10
2022-12-19T17:01:26.449Z,76.10
2022-12-19T17:04:30.558Z,76.20
2022-12-19T17:07:36.774Z,76.30
2022-12-19T17:10:48.065Z,76.70
2022-12-19T17:13:56.044Z,76.70
2022-12-19T17:17:00.442Z,76.40
2022-12-19T17:20:03.657Z,77.00
2022-12-19T17:23:15.807Z,76.30
2022-12-19T17:26:18.953Z,76.70
2022-12-19T17:29:22.089Z,76.60
2022-12-19T17:32:25.434Z,76.60
2022-12-19T17:35:35.146Z,76.60
2022-12-19T17:38:39.609Z,76.80
2022-12-19T17:41:42.803Z,76.80
2022-12-19T17:44:45.900Z,76.70
2022-12-19T17:47:52.248Z,76.80
2022-12-19T17:51:00.014Z,77.00
2022-12-19T17:54:04.753Z,76.90
2022-12-19T17:57:16.877Z,77.00
2022-12-19T18:00:29.939Z,77.30
2022-12-19T18:03:40.195Z,76.90
2022-12-19T18:06:43.424Z,76.90
2022-12-19T18:09:47.911Z,77.00
2022-12-19T18:12:51.696Z,76.90
2022-12-19T18:16:00.653Z,76.90
2022-12-19T18:19:05.301Z,77.10
2022-12-19T18:22:13.734Z,77.00
2022-12-19T18:25:22.993Z,77.10
2022-12-19T18:28:26.369Z,77.00
2022-12-19T18:31:29.437Z,77.00
2022-12-19T18:34:36.514Z,77.50
2022-12-19T18:37:39.795Z,77.10
2022-12-19T18:40:45.302Z,77.10
2022-12-19T18:43:49.262Z,77.10
2022-12-19T18:46:53.758Z,76.90
2022-12-19T18:49:57.302Z,77.00
2022-12-19T18:53:01.036Z,77.50
2022-12-19T18:56:06.996Z,77.00
2022-12-19T18:59:11.076Z,77.10
2022-12-19T19:02:24.578Z,77.00
2022-12-19T19:05:31.150Z,78.10
2022-12-19T19:08:35.565Z,77.00
2022-12-19T19:11:39.977Z,77.10
2022-12-19T19:14:43.017Z,77.20
2022-12-19T19:17:49.258Z,77.10
2022-12-19T19:21:00.718Z,77.20
2022-12-19T19:24:11.347Z,76.90
2022-12-19T19:27:15.932Z,77.90
2022-12-19T19:30:20.985Z,77.30
2022-12-19T19:33:30.452Z,77.80
2022-12-19T19:36:39.547Z,77.60
2022-12-19T19:39:43.162Z,77.40
2022-12-19T19:42:47.645Z,77.50
2022-12-19T19:45:52.073Z,77.50
2022-12-19T19:48:55.935Z,77.40
2022-12-19T19:52:02.985Z,77.90
2022-12-19T19:55:07.948Z,77.40
2022-12-19T19:58:12.455Z,77.50
2022-12-19T20:01:15.920Z,78.10
2022-12-19T20:04:19.099Z,77.40
2022-12-19T20:07:22.946Z,77.40
2022-12-19T20:10:25.961Z,77.40
2022-12-19T20:13:34.185Z,78.10
2022-12-19T20:16:37.277Z,77.50
2022-12-19T20:19:40.703Z,77.40
2022-12-19T20:22:43.763Z,78.00
2022-12-19T20:25:46.750Z,77.70
2022-12-19T20:28:52.302Z,77.50
2022-12-19T20:31:56.436Z,78.00
2022-12-19T20:34:59.497Z,77.50
2022-12-19T20:38:02.472Z,79.40
2022-12-19T20:41:06.299Z,78.00
2022-12-19T20:44:10.936Z,77.80
2022-12-19T20:47:14.850Z,78.00
2022-12-19T20:50:18.009Z,78.00
2022-12-19T20:53:21.169Z,77.80
2022-12-19T20:56:25.873Z,77.80
2022-12-19T20:59:30.667Z,77.90
2022-12-19T21:02:53.036Z,77.80
2022-12-19T21:05:57.950Z,77.80
2022-12-19T21:09:01.002Z,77.70
2022-12-19T21:12:04.275Z,77.70
2022-12-19T21:15:09.871Z,77.60
2022-12-19T21:18:12.881Z,77.70
2022-12-19T21:21:19.835Z,77.60
2022-12-19T21:24:22.929Z,77.60
2022-12-19T21:27:26.063Z,77.60
2022-12-19T21:30:30.455Z,77.60
2022-12-19T21:33:34.515Z,77.60
2022-12-19T21:36:38.516Z,77.50
2022-12-19T21:39:41.574Z,78.00
2022-12-19T21:42:44.833Z,77.50
2022-12-19T21:45:49.199Z,77.40
2022-12-19T21:48:54.962Z,77.40
2022-12-19T21:51:58.024Z,77.30
2022-12-19T21:55:01.235Z,77.80
2022-12-19T21:58:04.287Z,77.30
2022-12-19T22:01:13.770Z,77.30
2022-12-19T22:04:21.316Z,77.80
2022-12-19T22:07:24.468Z,77.30
2022-12-19T22:10:27.503Z,77.30
2022-12-19T22:13:31.059Z,77.20
2022-12-19T22:16:37.127Z,77.20
2022-12-19T22:19:40.301Z,77.30
2022-12-19T22:22:44.641Z,77.40
2022-12-19T22:25:47.684Z,77.60
2022-12-19T22:28:53.384Z,77.30
2022-12-19T22:31:57.959Z,77.30
2022-12-19T22:35:01.017Z,77.30
2022-12-19T22:38:04.462Z,77.30
2022-12-19T22:41:07.894Z,77.30
2022-12-19T22:44:18.152Z,77.20
2022-12-19T22:47:22.567Z,77.40
2022-12-19T22:50:25.691Z,77.50
2022-12-19T22:53:28.735Z,77.90
2022-12-19T22:56:33.454Z,77.40
2022-12-19T22:59:36.531Z,77.40
2022-12-19T23:02:42.026Z,77.40
2022-12-19T23:05:51.585Z,77.50
2022-12-19T23:08:55.640Z,77.50
2022-12-19T23:11:58.789Z,77.50
2022-12-19T23:15:01.793Z,77.50
2022-12-19T23:18:06.218Z,77.50
2022-12-19T23:21:12.878Z,78.10
2022-12-19T23:24:16.263Z,77.60
2022-12-19T23:27:19.280Z,77.60
2022-12-19T23:30:22.565Z,77.60
2022-12-19T23:33:26.941Z,77.60
2022-12-19T23:39:53.442Z,77.70
2022-12-19T23:42:56.589Z,77.40
2022-12-19T23:46:00.042Z,77.60
2022-12-19T23:49:05.189Z,77.60
2022-12-19T23:52:08.216Z,77.70
2022-12-19T23:55:12.072Z,77.60
2022-12-19T23:58:20.756Z,77.70
